sensor_id;sensor_type;location;lat;lon;timestamp;P1;durP1;ratioP1;P2;durP2;ratioP2
36659;SDS011;22654;51.054;3.654;2022-12-20T00:00:47;5.63;;;4.32;;
36659;SDS011;22654;51.054;3.654;2022-12-20T00:03:13;6.03;;;3.67;;
36659;SDS011;22654;51.054;3.654;2022-12-20T00:05:39;7.43;;;4.07;;
36659;SDS011;22654;51.054;3.654;2022-12-20T00:08:06;7.43;;;3.85;;
36659;SDS011;22654;51.054;3.654;2022-12-20T00:10:37;7.00;;;4.47;;
36659;SDS011;22654;51.054;3.654;2022-12-20T00:13:04;3.88;;;3.10;;
36659;SDS011;22654;51.054;3.654;2022-12-20T00:15:30;6.20;;;4.43;;
36659;SDS011;22654;51.054;3.654;2022-12-20T00:17:56;5.30;;;4.57;;
36659;SDS011;22654;51.054;3.654;2022-12-20T00:20:26;11.82;;;5.13;;
36659;SDS011;22654;51.054;3.654;2022-12-20T00:22:52;7.85;;;4.95;;
36659;SDS011;22654;51.054;3.654;2022-12-20T00:25:18;9.32;;;4.93;;
36659;SDS011;22654;51.054;3.654;2022-12-20T00:27:45;7.20;;;5.28;;
36659;SDS011;22654;51.054;3.654;2022-12-20T00:30:12;7.35;;;4.85;;
36659;SDS011;22654;51.054;3.654;2022-12-20T00:32:38;7.18;;;4.90;;
36659;SDS011;22654;51.054;3.654;2022-12-20T00:35:04;9.32;;;5.15;;
36659;SDS011;22654;51.054;3.654;2022-12-20T00:37:30;6.63;;;5.18;;
36659;SDS011;22654;51.054;3.654;2022-12-20T00:39:59;5.78;;;5.00;;
36659;SDS011;22654;51.054;3.654;2022-12-20T00:42:25;9.35;;;5.13;;
36659;SDS011;22654;51.054;3.654;2022-12-20T00:44:50;10.45;;;5.15;;
36659;SDS011;22654;51.054;3.654;2022-12-20T00:47:16;8.98;;;5.53;;
36659;SDS011;22654;51.054;3.654;2022-12-20T00:49:42;6.55;;;4.90;;
36659;SDS011;22654;51.054;3.654;2022-12-20T00:52:08;10.38;;;5.82;;
36659;SDS011;22654;51.054;3.654;2022-12-20T00:54:34;6.72;;;4.97;;
36659;SDS011;22654;51.054;3.654;2022-12-20T00:57:00;7.95;;;4.95;;
36659;SDS011;22654;51.054;3.654;2022-12-20T00:59:26;5.88;;;4.63;;
36659;SDS011;22654;51.054;3.654;2022-12-20T01:01:52;9.15;;;4.80;;
36659;SDS011;22654;51.054;3.654;2022-12-20T01:04:18;7.93;;;5.35;;
36659;SDS011;22654;51.054;3.654;2022-12-20T01:06:44;7.10;;;5.35;;
36659;SDS011;22654;51.054;3.654;2022-12-20T01:09:10;6.38;;;5.03;;
36659;SDS011;22654;51.054;3.654;2022-12-20T01:11:37;12.57;;;6.30;;
36659;SDS011;22654;51.054;3.654;2022-12-20T01:14:05;6.65;;;4.90;;
36659;SDS011;22654;51.054;3.654;2022-12-20T01:16:41;5.70;;;5.20;;
36659;SDS011;22654;51.054;3.654;2022-12-20T01:19:09;6.88;;;4.88;;
36659;SDS011;22654;51.054;3.654;2022-12-20T01:21:38;6.50;;;5.00;;
36659;SDS011;22654;51.054;3.654;2022-12-20T01:24:11;5.07;;;4.50;;
36659;SDS011;22654;51.054;3.654;2022-12-20T01:26:38;5.50;;;4.93;;
36659;SDS011;22654;51.054;3.654;2022-12-20T01:29:04;4.80;;;4.32;;
36659;SDS011;22654;51.054;3.654;2022-12-20T01:31:30;5.05;;;4.55;;
36659;SDS011;22654;51.054;3.654;2022-12-20T01:33:56;4.70;;;4.07;;
36659;SDS011;22654;51.054;3.654;2022-12-20T01:36:24;6.80;;;4.13;;
36659;SDS011;22654;51.054;3.654;2022-12-20T01:39:25;5.45;;;4.80;;
36659;SDS011;22654;51.054;3.654;2022-12-20T01:41:44;7.50;;;4.47;;
36659;SDS011;22654;51.054;3.654;2022-12-20T01:46:42;4.43;;;4.03;;
36659;SDS011;22654;51.054;3.654;2022-12-20T01:49:20;6.97;;;4.03;;
36659;SDS011;22654;51.054;3.654;2022-12-20T01:54:24;6.10;;;3.90;;
36659;SDS011;22654;51.054;3.654;2022-12-20T01:56:59;4.55;;;3.88;;
36659;SDS011;22654;51.054;3.654;2022-12-20T01:59:29;6.13;;;4.18;;
36659;SDS011;22654;51.054;3.654;2022-12-20T02:01:58;5.18;;;4.10;;
36659;SDS011;22654;51.054;3.654;2022-12-20T02:04:27;6.95;;;4.90;;
36659;SDS011;22654;51.054;3.654;2022-12-20T02:06:53;4.65;;;3.47;;
36659;SDS011;22654;51.054;3.654;2022-12-20T02:09:19;4.88;;;3.90;;
36659;SDS011;22654;51.054;3.654;2022-12-20T02:15:13;4.38;;;3.97;;
36659;SDS011;22654;51.054;3.654;2022-12-20T02:26:15;4.10;;;3.70;;
36659;SDS011;22654;51.054;3.654;2022-12-20T02:29:26;5.35;;;3.83;;
36659;SDS011;22654;51.054;3.654;2022-12-20T02:32:16;7.30;;;4.50;;
36659;SDS011;22654;51.054;3.654;2022-12-20T02:34:50;4.60;;;3.60;;
36659;SDS011;22654;51.054;3.654;2022-12-20T02:37:16;4.72;;;4.07;;
36659;SDS011;22654;51.054;3.654;2022-12-20T02:39:43;5.22;;;3.75;;
36659;SDS011;22654;51.054;3.654;2022-12-20T02:42:13;5.90;;;4.30;;
36659;SDS011;22654;51.054;3.654;2022-12-20T02:45:14;6.43;;;4.10;;
36659;SDS011;22654;51.054;3.654;2022-12-20T02:50:45;4.88;;;3.60;;
36659;SDS011;22654;51.054;3.654;2022-12-20T02:53:14;8.75;;;3.88;;
36659;SDS011;22654;51.054;3.654;2022-12-20T02:58:35;5.88;;;3.70;;
36659;SDS011;22654;51.054;3.654;2022-12-20T03:01:22;6.88;;;4.00;;
36659;SDS011;22654;51.054;3.654;2022-12-20T03:03:55;6.40;;;4.03;;
36659;SDS011;22654;51.054;3.654;2022-12-20T03:06:23;6.38;;;4.40;;
36659;SDS011;22654;51.054;3.654;2022-12-20T03:08:49;6.43;;;4.10;;
36659;SDS011;22654;51.054;3.654;2022-12-20T03:11:15;6.68;;;4.70;;
36659;SDS011;22654;51.054;3.654;2022-12-20T03:13:41;6.15;;;4.45;;
36659;SDS011;22654;51.054;3.654;2022-12-20T03:16:08;4.55;;;3.85;;
36659;SDS011;22654;51.054;3.654;2022-12-20T03:18:35;4.70;;;3.53;;
36659;SDS011;22654;51.054;3.654;2022-12-20T03:21:02;5.45;;;4.22;;
36659;SDS011;22654;51.054;3.654;2022-12-20T03:23:28;6.97;;;3.88;;
36659;SDS011;22654;51.054;3.654;2022-12-20T03:25:54;5.32;;;4.18;;
36659;SDS011;22654;51.054;3.654;2022-12-20T03:28:28;5.07;;;3.88;;
36659;SDS011;22654;51.054;3.654;2022-12-20T03:30:55;7.22;;;4.10;;
36659;SDS011;22654;51.054;3.654;2022-12-20T03:33:21;6.90;;;4.18;;
36659;SDS011;22654;51.054;3.654;2022-12-20T03:35:47;6.47;;;4.75;;
36659;SDS011;22654;51.054;3.654;2022-12-20T03:38:15;5.95;;;4.15;;
36659;SDS011;22654;51.054;3.654;2022-12-20T03:40:41;4.65;;;3.80;;
36659;SDS011;22654;51.054;3.654;2022-12-20T03:43:09;6.95;;;4.22;;
36659;SDS011;22654;51.054;3.654;2022-12-20T03:45:35;6.28;;;4.20;;
36659;SDS011;22654;51.054;3.654;2022-12-20T03:48:01;6.00;;;3.83;;
36659;SDS011;22654;51.054;3.654;2022-12-20T03:50:29;7.97;;;4.05;;
36659;SDS011;22654;51.054;3.654;2022-12-20T03:52:55;7.43;;;3.83;;
36659;SDS011;22654;51.054;3.654;2022-12-20T03:55:21;6.88;;;4.00;;
36659;SDS011;22654;51.054;3.654;2022-12-20T03:57:48;5.43;;;3.63;;
36659;SDS011;22654;51.054;3.654;2022-12-20T04:00:25;6.72;;;3.60;;
36659;SDS011;22654;51.054;3.654;2022-12-20T04:02:57;3.97;;;3.63;;
36659;SDS011;22654;51.054;3.654;2022-12-20T04:05:25;5.32;;;3.60;;
36659;SDS011;22654;51.054;3.654;2022-12-20T04:07:51;7.55;;;3.75;;
36659;SDS011;22654;51.054;3.654;2022-12-20T04:10:17;3.65;;;3.03;;
36659;SDS011;22654;51.054;3.654;2022-12-20T04:12:43;6.43;;;3.50;;
36659;SDS011;22654;51.054;3.654;2022-12-20T04:15:11;12.88;;;3.58;;
36659;SDS011;22654;51.054;3.654;2022-12-20T04:17:39;3.58;;;3.22;;
36659;SDS011;22654;51.054;3.654;2022-12-20T04:20:12;8.50;;;3.70;;
36659;SDS011;22654;51.054;3.654;2022-12-20T04:23:11;5.75;;;3.40;;
36659;SDS011;22654;51.054;3.654;2022-12-20T04:25:37;5.68;;;3.92;;
36659;SDS011;22654;51.054;3.654;2022-12-20T04:28:05;4.85;;;3.33;;
36659;SDS011;22654;51.054;3.654;2022-12-20T04:30:31;4.50;;;3.25;;
36659;SDS011;22654;51.054;3.654;2022-12-20T04:32:58;5.35;;;2.90;;
36659;SDS011;22654;51.054;3.654;2022-12-20T04:35:25;5.03;;;3.40;;
36659;SDS011;22654;51.054;3.654;2022-12-20T04:37:51;4.38;;;3.70;;
36659;SDS011;22654;51.054;3.654;2022-12-20T04:40:17;4.65;;;3.30;;
36659;SDS011;22654;51.054;3.654;2022-12-20T04:42:46;3.28;;;2.97;;
36659;SDS011;22654;51.054;3.654;2022-12-20T04:45:15;5.30;;;3.00;;
36659;SDS011;22654;51.054;3.654;2022-12-20T04:47:41;5.07;;;3.60;;
36659;SDS011;22654;51.054;3.654;2022-12-20T04:50:08;4.53;;;3.30;;
36659;SDS011;22654;51.054;3.654;2022-12-20T04:52:34;5.45;;;2.95;;
36659;SDS011;22654;51.054;3.654;2022-12-20T04:55:19;7.47;;;3.17;;
36659;SDS011;22654;51.054;3.654;2022-12-20T04:57:44;4.95;;;3.22;;
36659;SDS011;22654;51.054;3.654;2022-12-20T05:00:11;4.72;;;3.20;;
36659;SDS011;22654;51.054;3.654;2022-12-20T05:02:42;4.05;;;3.30;;
36659;SDS011;22654;51.054;3.654;2022-12-20T05:05:12;4.55;;;3.08;;
36659;SDS011;22654;51.054;3.654;2022-12-20T05:07:45;4.80;;;3.20;;
36659;SDS011;22654;51.054;3.654;2022-12-20T05:10:11;4.72;;;3.08;;
36659;SDS011;22654;51.054;3.654;2022-12-20T05:12:38;5.95;;;3.00;;
36659;SDS011;22654;51.054;3.654;2022-12-20T05:15:06;5.88;;;2.97;;
36659;SDS011;22654;51.054;3.654;2022-12-20T05:17:32;5.38;;;3.10;;
36659;SDS011;22654;51.054;3.654;2022-12-20T05:19:59;3.42;;;2.80;;
36659;SDS011;22654;51.054;3.654;2022-12-20T05:22:25;4.47;;;2.92;;
36659;SDS011;22654;51.054;3.654;2022-12-20T05:25:12;4.90;;;2.72;;
36659;SDS011;22654;51.054;3.654;2022-12-20T05:28:01;5.07;;;2.85;;
36659;SDS011;22654;51.054;3.654;2022-12-20T05:30:31;5.75;;;2.70;;
36659;SDS011;22654;51.054;3.654;2022-12-20T05:32:57;4.47;;;3.55;;
36659;SDS011;22654;51.054;3.654;2022-12-20T05:35:23;3.80;;;2.90;;
36659;SDS011;22654;51.054;3.654;2022-12-20T05:37:55;4.70;;;3.00;;
36659;SDS011;22654;51.054;3.654;2022-12-20T05:40:21;5.25;;;3.08;;
36659;SDS011;22654;51.054;3.654;2022-12-20T05:42:48;4.25;;;2.92;;
36659;SDS011;22654;51.054;3.654;2022-12-20T05:45:14;3.00;;;2.50;;
36659;SDS011;22654;51.054;3.654;2022-12-20T05:47:49;9.15;;;3.17;;
36659;SDS011;22654;51.054;3.654;2022-12-20T05:50:15;3.97;;;2.78;;
36659;SDS011;22654;51.054;3.654;2022-12-20T05:53:01;4.85;;;2.70;;
36659;SDS011;22654;51.054;3.654;2022-12-20T05:55:27;3.70;;;3.00;;
36659;SDS011;22654;51.054;3.654;2022-12-20T05:57:53;6.63;;;2.67;;
36659;SDS011;22654;51.054;3.654;2022-12-20T06:00:29;5.63;;;2.97;;
36659;SDS011;22654;51.054;3.654;2022-12-20T06:02:55;4.53;;;3.13;;
36659;SDS011;22654;51.054;3.654;2022-12-20T06:05:21;4.25;;;3.33;;
36659;SDS011;22654;51.054;3.654;2022-12-20T06:07:47;4.72;;;2.75;;
36659;SDS011;22654;51.054;3.654;2022-12-20T06:10:13;5.13;;;2.60;;
36659;SDS011;22654;51.054;3.654;2022-12-20T06:12:48;4.78;;;2.80;;
36659;SDS011;22654;51.054;3.654;2022-12-20T06:15:15;5.15;;;2.88;;
36659;SDS011;22654;51.054;3.654;2022-12-20T06:17:41;4.28;;;2.75;;
36659;SDS011;22654;51.054;3.654;2022-12-20T06:20:07;7.47;;;3.05;;
36659;SDS011;22654;51.054;3.654;2022-12-20T06:22:34;5.05;;;3.42;;
36659;SDS011;22654;51.054;3.654;2022-12-20T06:25:02;3.65;;;2.40;;
36659;SDS011;22654;51.054;3.654;2022-12-20T06:27:33;5.93;;;2.50;;
36659;SDS011;22654;51.054;3.654;2022-12-20T06:30:09;5.07;;;2.75;;
36659;SDS011;22654;51.054;3.654;2022-12-20T06:32:59;4.40;;;2.50;;
36659;SDS011;22654;51.054;3.654;2022-12-20T06:35:26;4.13;;;2.17;;
36659;SDS011;22654;51.054;3.654;2022-12-20T06:37:54;3.30;;;2.40;;
36659;SDS011;22654;51.054;3.654;2022-12-20T06:40:20;5.07;;;2.50;;
36659;SDS011;22654;51.054;3.654;2022-12-20T06:42:46;3.75;;;2.65;;
36659;SDS011;22654;51.054;3.654;2022-12-20T06:45:15;3.58;;;2.67;;
36659;SDS011;22654;51.054;3.654;2022-12-20T06:47:42;5.85;;;2.67;;
36659;SDS011;22654;51.054;3.654;2022-12-20T06:50:07;4.43;;;3.13;;
36659;SDS011;22654;51.054;3.654;2022-12-20T06:52:33;3.13;;;2.50;;
36659;SDS011;22654;51.054;3.654;2022-12-20T06:54:59;4.00;;;2.67;;
36659;SDS011;22654;51.054;3.654;2022-12-20T06:57:25;3.35;;;2.70;;
36659;SDS011;22654;51.054;3.654;2022-12-20T06:59:52;5.13;;;3.00;;
36659;SDS011;22654;51.054;3.654;2022-12-20T07:02:18;3.10;;;2.72;;
36659;SDS011;22654;51.054;3.654;2022-12-20T07:04:44;3.53;;;2.30;;
36659;SDS011;22654;51.054;3.654;2022-12-20T07:07:11;6.38;;;2.97;;
36659;SDS011;22654;51.054;3.654;2022-12-20T07:09:37;2.72;;;2.50;;
36659;SDS011;22654;51.054;3.654;2022-12-20T07:12:05;6.15;;;3.28;;
36659;SDS011;22654;51.054;3.654;2022-12-20T07:14:32;5.78;;;2.75;;
36659;SDS011;22654;51.054;3.654;2022-12-20T07:16:58;4.63;;;2.72;;
36659;SDS011;22654;51.054;3.654;2022-12-20T07:19:24;7.57;;;3.40;;
36659;SDS011;22654;51.054;3.654;2022-12-20T07:21:53;6.88;;;3.28;;
36659;SDS011;22654;51.054;3.654;2022-12-20T07:24:19;9.48;;;3.80;;
36659;SDS011;22654;51.054;3.654;2022-12-20T07:26:45;6.05;;;3.33;;
36659;SDS011;22654;51.054;3.654;2022-12-20T07:29:11;8.32;;;3.35;;
36659;SDS011;22654;51.054;3.654;2022-12-20T07:31:38;5.47;;;3.25;;
36659;SDS011;22654;51.054;3.654;2022-12-20T07:34:04;4.55;;;3.40;;
36659;SDS011;22654;51.054;3.654;2022-12-20T07:36:30;5.80;;;3.17;;
36659;SDS011;22654;51.054;3.654;2022-12-20T07:38:56;5.97;;;4.25;;
36659;SDS011;22654;51.054;3.654;2022-12-20T07:41:22;6.30;;;3.80;;
36659;SDS011;22654;51.054;3.654;2022-12-20T07:43:49;9.02;;;3.80;;
36659;SDS011;22654;51.054;3.654;2022-12-20T07:46:15;7.07;;;4.30;;
36659;SDS011;22654;51.054;3.654;2022-12-20T07:48:41;5.75;;;3.53;;
36659;SDS011;22654;51.054;3.654;2022-12-20T07:51:10;6.72;;;4.18;;
36659;SDS011;22654;51.054;3.654;2022-12-20T07:53:40;4.38;;;3.70;;
36659;SDS011;22654;51.054;3.654;2022-12-20T07:56:09;5.65;;;3.50;;
36659;SDS011;22654;51.054;3.654;2022-12-20T07:58:37;6.80;;;3.92;;
36659;SDS011;22654;51.054;3.654;2022-12-20T08:01:04;5.82;;;3.70;;
36659;SDS011;22654;51.054;3.654;2022-12-20T08:03:50;7.47;;;4.38;;
36659;SDS011;22654;51.054;3.654;2022-12-20T08:06:18;4.00;;;3.30;;
36659;SDS011;22654;51.054;3.654;2022-12-20T08:08:49;4.80;;;3.63;;
36659;SDS011;22654;51.054;3.654;2022-12-20T08:11:20;7.95;;;3.72;;
36659;SDS011;22654;51.054;3.654;2022-12-20T08:13:47;7.30;;;3.83;;
36659;SDS011;22654;51.054;3.654;2022-12-20T08:16:14;6.18;;;3.35;;
36659;SDS011;22654;51.054;3.654;2022-12-20T08:18:40;4.15;;;3.75;;
36659;SDS011;22654;51.054;3.654;2022-12-20T08:21:06;10.57;;;3.95;;
36659;SDS011;22654;51.054;3.654;2022-12-20T08:23:32;8.20;;;3.50;;
36659;SDS011;22654;51.054;3.654;2022-12-20T08:25:59;7.38;;;3.35;;
36659;SDS011;22654;51.054;3.654;2022-12-20T08:28:26;7.43;;;3.33;;
36659;SDS011;22654;51.054;3.654;2022-12-20T08:30:51;6.22;;;3.28;;
36659;SDS011;22654;51.054;3.654;2022-12-20T08:33:17;5.45;;;3.00;;
36659;SDS011;22654;51.054;3.654;2022-12-20T08:35:43;7.07;;;3.63;;
36659;SDS011;22654;51.054;3.654;2022-12-20T08:38:09;5.50;;;3.30;;
36659;SDS011;22654;51.054;3.654;2022-12-20T08:40:35;6.38;;;3.60;;
36659;SDS011;22654;51.054;3.654;2022-12-20T08:43:01;8.10;;;3.22;;
36659;SDS011;22654;51.054;3.654;2022-12-20T08:45:27;6.22;;;3.58;;
36659;SDS011;22654;51.054;3.654;2022-12-20T08:47:53;6.28;;;3.75;;
36659;SDS011;22654;51.054;3.654;2022-12-20T08:50:19;4.07;;;3.03;;
36659;SDS011;22654;51.054;3.654;2022-12-20T08:52:45;6.32;;;3.95;;
36659;SDS011;22654;51.054;3.654;2022-12-20T08:55:10;4.97;;;3.95;;
36659;SDS011;22654;51.054;3.654;2022-12-20T08:57:36;5.32;;;2.90;;
36659;SDS011;22654;51.054;3.654;2022-12-20T09:00:02;8.18;;;3.30;;
36659;SDS011;22654;51.054;3.654;2022-12-20T09:02:29;5.05;;;3.20;;
36659;SDS011;22654;51.054;3.654;2022-12-20T09:04:55;7.15;;;3.45;;
36659;SDS011;22654;51.054;3.654;2022-12-20T09:07:21;5.93;;;3.25;;
36659;SDS011;22654;51.054;3.654;2022-12-20T09:09:47;6.82;;;4.05;;
36659;SDS011;22654;51.054;3.654;2022-12-20T09:12:13;10.07;;;4.53;;
36659;SDS011;22654;51.054;3.654;2022-12-20T09:14:39;5.95;;;3.85;;
36659;SDS011;22654;51.054;3.654;2022-12-20T09:17:05;7.00;;;3.47;;
36659;SDS011;22654;51.054;3.654;2022-12-20T09:19:31;6.95;;;4.05;;
36659;SDS011;22654;51.054;3.654;2022-12-20T09:21:57;9.52;;;4.45;;
36659;SDS011;22654;51.054;3.654;2022-12-20T09:24:23;6.35;;;3.97;;
36659;SDS011;22654;51.054;3.654;2022-12-20T09:26:49;10.20;;;4.05;;
36659;SDS011;22654;51.054;3.654;2022-12-20T09:29:14;8.15;;;4.00;;
36659;SDS011;22654;51.054;3.654;2022-12-20T09:31:43;8.20;;;3.97;;
36659;SDS011;22654;51.054;3.654;2022-12-20T09:34:11;7.18;;;4.18;;
36659;SDS011;22654;51.054;3.654;2022-12-20T09:36:37;6.28;;;3.55;;
36659;SDS011;22654;51.054;3.654;2022-12-20T09:39:03;6.95;;;3.80;;
36659;SDS011;22654;51.054;3.654;2022-12-20T09:41:33;5.50;;;4.07;;
36659;SDS011;22654;51.054;3.654;2022-12-20T09:44:05;7.28;;;3.95;;
36659;SDS011;22654;51.054;3.654;2022-12-20T09:46:35;11.50;;;3.80;;
36659;SDS011;22654;51.054;3.654;2022-12-20T09:49:02;8.75;;;4.28;;
36659;SDS011;22654;51.054;3.654;2022-12-20T09:54:33;7.70;;;3.97;;
36659;SDS011;22654;51.054;3.654;2022-12-20T10:00:10;7.45;;;4.35;;
36659;SDS011;22654;51.054;3.654;2022-12-20T10:02:40;9.27;;;6.20;;
36659;SDS011;22654;51.054;3.654;2022-12-20T10:05:12;8.57;;;6.18;;
36659;SDS011;22654;51.054;3.654;2022-12-20T10:07:51;10.20;;;4.95;;
36659;SDS011;22654;51.054;3.654;2022-12-20T10:15:40;8.85;;;4.82;;
36659;SDS011;22654;51.054;3.654;2022-12-20T10:21:11;7.82;;;5.65;;
36659;SDS011;22654;51.054;3.654;2022-12-20T10:26:22;12.52;;;5.72;;
36659;SDS011;22654;51.054;3.654;2022-12-20T10:28:48;9.45;;;6.57;;
36659;SDS011;22654;51.054;3.654;2022-12-20T10:31:15;8.57;;;5.07;;
36659;SDS011;22654;51.054;3.654;2022-12-20T10:33:42;7.90;;;4.30;;
36659;SDS011;22654;51.054;3.654;2022-12-20T10:36:26;8.02;;;4.45;;
36659;SDS011;22654;51.054;3.654;2022-12-20T10:38:54;7.53;;;4.65;;
36659;SDS011;22654;51.054;3.654;2022-12-20T10:41:45;10.82;;;4.40;;
36659;SDS011;22654;51.054;3.654;2022-12-20T10:46:48;9.43;;;4.70;;
36659;SDS011;22654;51.054;3.654;2022-12-20T10:51:52;7.85;;;4.85;;
36659;SDS011;22654;51.054;3.654;2022-12-20T10:54:23;12.45;;;5.68;;
36659;SDS011;22654;51.054;3.654;2022-12-20T10:56:59;9.32;;;5.00;;
36659;SDS011;22654;51.054;3.654;2022-12-20T10:59:36;12.57;;;5.53;;
36659;SDS011;22654;51.054;3.654;2022-12-20T11:05:00;7.72;;;5.72;;
36659;SDS011;22654;51.054;3.654;2022-12-20T11:07:29;10.63;;;5.63;;
36659;SDS011;22654;51.054;3.654;2022-12-20T11:09:59;6.05;;;4.70;;
36659;SDS011;22654;51.054;3.654;2022-12-20T11:12:27;6.88;;;4.88;;
36659;SDS011;22654;51.054;3.654;2022-12-20T11:17:45;9.93;;;5.10;;
36659;SDS011;22654;51.054;3.654;2022-12-20T11:33:43;8.05;;;5.28;;
36659;SDS011;22654;51.054;3.654;2022-12-20T11:53:07;8.30;;;6.50;;
36659;SDS011;22654;51.054;3.654;2022-12-20T11:55:52;11.63;;;6.60;;
36659;SDS011;22654;51.054;3.654;2022-12-20T11:58:22;12.70;;;6.85;;
36659;SDS011;22654;51.054;3.654;2022-12-20T12:00:59;11.05;;;6.90;;
36659;SDS011;22654;51.054;3.654;2022-12-20T12:03:37;11.20;;;7.60;;
36659;SDS011;22654;51.054;3.654;2022-12-20T12:06:24;8.88;;;6.97;;
36659;SDS011;22654;51.054;3.654;2022-12-20T12:11:59;11.95;;;7.05;;
36659;SDS011;22654;51.054;3.654;2022-12-20T12:17:58;10.77;;;7.60;;
36659;SDS011;22654;51.054;3.654;2022-12-20T12:22:44;10.55;;;7.00;;
36659;SDS011;22654;51.054;3.654;2022-12-20T12:25:14;9.55;;;6.80;;
36659;SDS011;22654;51.054;3.654;2022-12-20T12:27:42;12.15;;;6.82;;
36659;SDS011;22654;51.054;3.654;2022-12-20T12:30:15;10.88;;;6.78;;
36659;SDS011;22654;51.054;3.654;2022-12-20T12:37:52;10.38;;;6.22;;
36659;SDS011;22654;51.054;3.654;2022-12-20T12:40:32;9.48;;;6.35;;
36659;SDS011;22654;51.054;3.654;2022-12-20T12:43:28;8.50;;;6.13;;
36659;SDS011;22654;51.054;3.654;2022-12-20T12:46:13;8.40;;;6.07;;
36659;SDS011;22654;51.054;3.654;2022-12-20T12:51:36;8.05;;;6.38;;
36659;SDS011;22654;51.054;3.654;2022-12-20T12:54:18;9.38;;;6.57;;
36659;SDS011;22654;51.054;3.654;2022-12-20T12:56:49;8.60;;;6.25;;
36659;SDS011;22654;51.054;3.654;2022-12-20T13:07:40;6.95;;;6.20;;
36659;SDS011;22654;51.054;3.654;2022-12-20T13:17:53;8.05;;;6.40;;
36659;SDS011;22654;51.054;3.654;2022-12-20T13:20:24;7.68;;;5.13;;
36659;SDS011;22654;51.054;3.654;2022-12-20T13:23:13;7.72;;;5.40;;
36659;SDS011;22654;51.054;3.654;2022-12-20T13:44:16;7.55;;;6.32;;
36659;SDS011;22654;51.054;3.654;2022-12-20T13:46:56;6.38;;;5.47;;
36659;SDS011;22654;51.054;3.654;2022-12-20T13:49:28;8.35;;;6.72;;
36659;SDS011;22654;51.054;3.654;2022-12-20T13:52:33;7.57;;;6.22;;
36659;SDS011;22654;51.054;3.654;2022-12-20T13:54:59;8.43;;;7.00;;
36659;SDS011;22654;51.054;3.654;2022-12-20T13:57:32;10.32;;;7.20;;
36659;SDS011;22654;51.054;3.654;2022-12-20T14:00:16;7.07;;;6.03;;
36659;SDS011;22654;51.054;3.654;2022-12-20T14:02:46;9.05;;;6.05;;
36659;SDS011;22654;51.054;3.654;2022-12-20T14:07:40;8.50;;;6.72;;
36659;SDS011;22654;51.054;3.654;2022-12-20T14:10:18;7.47;;;6.35;;
36659;SDS011;22654;51.054;3.654;2022-12-20T14:12:49;9.40;;;6.35;;
36659;SDS011;22654;51.054;3.654;2022-12-20T14:15:34;8.52;;;6.40;;
36659;SDS011;22654;51.054;3.654;2022-12-20T14:18:20;10.23;;;7.40;;
36659;SDS011;22654;51.054;3.654;2022-12-20T14:20:58;7.45;;;6.75;;
36659;SDS011;22654;51.054;3.654;2022-12-20T14:23:32;9.45;;;7.20;;
36659;SDS011;22654;51.054;3.654;2022-12-20T14:26:16;9.70;;;7.70;;
36659;SDS011;22654;51.054;3.654;2022-12-20T14:28:50;9.65;;;7.45;;
36659;SDS011;22654;51.054;3.654;2022-12-20T14:34:00;11.68;;;8.05;;
36659;SDS011;22654;51.054;3.654;2022-12-20T14:36:30;9.15;;;6.82;;
36659;SDS011;22654;51.054;3.654;2022-12-20T14:38:57;9.50;;;7.90;;
36659;SDS011;22654;51.054;3.654;2022-12-20T14:44:12;8.80;;;7.65;;
36659;SDS011;22654;51.054;3.654;2022-12-20T14:46:48;14.15;;;8.30;;
36659;SDS011;22654;51.054;3.654;2022-12-20T14:49:31;13.27;;;8.00;;
36659;SDS011;22654;51.054;3.654;2022-12-20T15:03:10;9.85;;;8.48;;
36659;SDS011;22654;51.054;3.654;2022-12-20T15:05:43;10.43;;;9.10;;
36659;SDS011;22654;51.054;3.654;2022-12-20T15:11:01;10.20;;;9.20;;
36659;SDS011;22654;51.054;3.654;2022-12-20T15:13:35;11.07;;;9.50;;
36659;SDS011;22654;51.054;3.654;2022-12-20T15:16:04;10.50;;;8.98;;
36659;SDS011;22654;51.054;3.654;2022-12-20T15:18:37;10.05;;;9.05;;
36659;SDS011;22654;51.054;3.654;2022-12-20T15:21:07;10.85;;;9.68;;
36659;SDS011;22654;51.054;3.654;2022-12-20T15:23:36;12.95;;;9.77;;
36659;SDS011;22654;51.054;3.654;2022-12-20T15:26:17;11.75;;;10.27;;
36659;SDS011;22654;51.054;3.654;2022-12-20T15:28:45;12.02;;;9.23;;
36659;SDS011;22654;51.054;3.654;2022-12-20T15:31:11;11.77;;;10.23;;
36659;SDS011;22654;51.054;3.654;2022-12-20T15:33:39;12.18;;;9.80;;
36659;SDS011;22654;51.054;3.654;2022-12-20T15:36:06;13.43;;;10.75;;
36659;SDS011;22654;51.054;3.654;2022-12-20T15:38:40;13.63;;;10.48;;
36659;SDS011;22654;51.054;3.654;2022-12-20T15:41:16;13.05;;;11.10;;
36659;SDS011;22654;51.054;3.654;2022-12-20T15:43:52;12.82;;;11.45;;
36659;SDS011;22654;51.054;3.654;2022-12-20T15:46:20;14.05;;;10.80;;
36659;SDS011;22654;51.054;3.654;2022-12-20T15:48:47;14.68;;;11.18;;
36659;SDS011;22654;51.054;3.654;2022-12-20T15:51:17;12.30;;;11.18;;
36659;SDS011;22654;51.054;3.654;2022-12-20T15:53:49;12.25;;;11.15;;
36659;SDS011;22654;51.054;3.654;2022-12-20T15:56:19;13.70;;;11.57;;
36659;SDS011;22654;51.054;3.654;2022-12-20T15:58:47;13.68;;;12.38;;
36659;SDS011;22654;51.054;3.654;2022-12-20T16:01:24;14.02;;;12.00;;
36659;SDS011;22654;51.054;3.654;2022-12-20T16:03:53;12.45;;;11.25;;
36659;SDS011;22654;51.054;3.654;2022-12-20T16:06:18;15.30;;;11.98;;
36659;SDS011;22654;51.054;3.654;2022-12-20T16:08:46;15.35;;;13.25;;
36659;SDS011;22654;51.054;3.654;2022-12-20T16:11:22;14.07;;;12.57;;
36659;SDS011;22654;51.054;3.654;2022-12-20T16:13:52;13.23;;;11.93;;
36659;SDS011;22654;51.054;3.654;2022-12-20T16:16:20;15.18;;;13.57;;
36659;SDS011;22654;51.054;3.654;2022-12-20T16:18:51;13.45;;;12.02;;
36659;SDS011;22654;51.054;3.654;2022-12-20T16:21:21;17.02;;;15.02;;
36659;SDS011;22654;51.054;3.654;2022-12-20T16:23:49;14.75;;;13.18;;
36659;SDS011;22654;51.054;3.654;2022-12-20T16:26:16;17.45;;;15.05;;
36659;SDS011;22654;51.054;3.654;2022-12-20T16:28:44;15.93;;;14.25;;
36659;SDS011;22654;51.054;3.654;2022-12-20T16:31:16;16.02;;;14.45;;
36659;SDS011;22654;51.054;3.654;2022-12-20T16:33:46;18.55;;;14.50;;
36659;SDS011;22654;51.054;3.654;2022-12-20T16:36:13;16.20;;;14.23;;
36659;SDS011;22654;51.054;3.654;2022-12-20T16:38:40;17.58;;;15.32;;
36659;SDS011;22654;51.054;3.654;2022-12-20T16:41:13;17.13;;;15.32;;
36659;SDS011;22654;51.054;3.654;2022-12-20T16:43:44;16.15;;;14.43;;
36659;SDS011;22654;51.054;3.654;2022-12-20T16:46:11;18.75;;;16.77;;
36659;SDS011;22654;51.054;3.654;2022-12-20T16:48:40;17.83;;;15.60;;
36659;SDS011;22654;51.054;3.654;2022-12-20T16:51:20;19.92;;;17.38;;
36659;SDS011;22654;51.054;3.654;2022-12-20T16:53:49;17.33;;;15.52;;
36659;SDS011;22654;51.054;3.654;2022-12-20T16:56:19;18.15;;;16.23;;
36659;SDS011;22654;51.054;3.654;2022-12-20T16:58:45;18.83;;;16.98;;
36659;SDS011;22654;51.054;3.654;2022-12-20T17:01:18;18.60;;;16.70;;
36659;SDS011;22654;51.054;3.654;2022-12-20T17:03:48;21.90;;;18.20;;
36659;SDS011;22654;51.054;3.654;2022-12-20T17:06:15;19.52;;;17.52;;
36659;SDS011;22654;51.054;3.654;2022-12-20T17:08:42;20.63;;;18.30;;
36659;SDS011;22654;51.054;3.654;2022-12-20T17:13:42;21.77;;;18.35;;
36659;SDS011;22654;51.054;3.654;2022-12-20T17:16:10;20.50;;;18.40;;
36659;SDS011;22654;51.054;3.654;2022-12-20T17:18:40;22.45;;;17.83;;
36659;SDS011;22654;51.054;3.654;2022-12-20T17:23:57;23.02;;;20.17;;
36659;SDS011;22654;51.054;3.654;2022-12-20T17:26:24;23.20;;;20.77;;
36659;SDS011;22654;51.054;3.654;2022-12-20T17:28:53;20.95;;;18.42;;
36659;SDS011;22654;51.054;3.654;2022-12-20T17:31:24;23.83;;;19.73;;
36659;SDS011;22654;51.054;3.654;2022-12-20T17:33:56;21.50;;;18.83;;
36659;SDS011;22654;51.054;3.654;2022-12-20T17:36:22;21.77;;;19.58;;
36659;SDS011;22654;51.054;3.654;2022-12-20T17:38:49;23.92;;;19.95;;